createdAt,value
2019-05-21T00:00:50.614Z,15.60
2019-05-21T00:03:17.481Z,15.52
2019-05-21T00:05:44.288Z,15.58
2019-05-21T00:08:10.948Z,15.47
2019-05-21T00:10:38.798Z,15.54
2019-05-21T00:13:06.169Z,15.56
2019-05-21T00:15:35.222Z,15.51
2019-05-21T00:18:02.437Z,15.61
2019-05-21T00:20:29.117Z,15.60
2019-05-21T00:22:57.072Z,15.47
2019-05-21T00:25:23.888Z,15.50
2019-05-21T00:27:51.931Z,15.51
2019-05-21T00:30:27.292Z,15.50
2019-05-21T00:33:00.087Z,15.49
2019-05-21T00:35:35.524Z,15.51
2019-05-21T00:38:08.396Z,15.38
2019-05-21T00:40:40.767Z,15.34
2019-05-21T00:43:09.643Z,15.36
2019-05-21T00:45:37.392Z,15.41
2019-05-21T00:48:05.892Z,15.47
2019-05-21T00:50:33.167Z,15.52
2019-05-21T00:52:59.747Z,15.41
2019-05-21T00:55:26.391Z,15.36
2019-05-21T00:57:53.227Z,15.33
2019-05-21T01:00:20.562Z,15.42
2019-05-21T01:02:47.170Z,15.34
2019-05-21T01:05:13.938Z,15.26
2019-05-21T01:07:40.594Z,15.27
2019-05-21T01:10:07.980Z,15.36
2019-05-21T01:12:37.968Z,15.37
2019-05-21T01:15:06.620Z,15.42
2019-05-21T01:17:33.217Z,15.48
2019-05-21T01:20:00.007Z,15.54
2019-05-21T01:22:27.913Z,15.45
2019-05-21T01:24:56.029Z,15.22
2019-05-21T01:27:22.611Z,15.31
2019-05-21T01:29:49.453Z,15.23
2019-05-21T01:32:16.048Z,15.36
2019-05-21T01:34:42.840Z,15.35
2019-05-21T01:37:09.690Z,15.07
2019-05-21T01:40:32.860Z,15.15
2019-05-21T01:43:03.386Z,15.29
2019-05-21T01:45:29.541Z,15.22
2019-05-21T01:47:56.113Z,15.27
2019-05-21T01:50:24.104Z,15.21
2019-05-21T01:52:50.660Z,15.31
2019-05-21T01:55:17.728Z,15.23
2019-05-21T01:57:44.307Z,15.34
2019-05-21T02:00:11.892Z,15.33
2019-05-21T02:02:38.555Z,15.36
2019-05-21T02:05:07.119Z,15.34
2019-05-21T02:07:33.897Z,15.14
2019-05-21T02:10:00.589Z,15.13
2019-05-21T02:12:27.448Z,15.04
2019-05-21T02:14:55.220Z,15.11
2019-05-21T02:17:22.621Z,15.13
2019-05-21T02:19:49.394Z,15.16
2019-05-21T02:22:16.657Z,15.18
2019-05-21T02:24:43.271Z,15.23
2019-05-21T02:27:09.950Z,15.14
2019-05-21T02:29:36.622Z,15.00
2019-05-21T02:32:03.217Z,15.00
2019-05-21T02:34:29.778Z,14.96
2019-05-21T02:36:56.691Z,15.00
2019-05-21T02:39:24.401Z,15.00
2019-05-21T02:41:50.996Z,14.98
2019-05-21T02:44:18.939Z,15.06
2019-05-21T02:46:45.824Z,14.98
2019-05-21T02:49:12.846Z,15.07
2019-05-21T02:51:39.386Z,15.10
2019-05-21T02:54:05.964Z,15.11
2019-05-21T02:56:32.625Z,15.01
2019-05-21T02:58:59.190Z,15.14
2019-05-21T03:01:27.704Z,15.15
2019-05-21T03:03:54.460Z,15.03
2019-05-21T03:06:21.145Z,15.05
2019-05-21T03:08:47.870Z,15.19
2019-05-21T03:11:14.653Z,15.20
2019-05-21T03:13:41.340Z,15.23
2019-05-21T03:16:08.063Z,15.28
2019-05-21T03:18:34.754Z,15.31
2019-05-21T03:21:02.810Z,15.22
2019-05-21T03:23:30.600Z,15.31
2019-05-21T03:25:57.539Z,15.45
2019-05-21T03:28:24.351Z,15.29
2019-05-21T03:30:51.425Z,15.26
2019-05-21T03:33:18.572Z,15.38
2019-05-21T03:35:45.252Z,15.47
2019-05-21T03:38:11.840Z,15.43
2019-05-21T03:40:38.834Z,15.22
2019-05-21T03:43:05.975Z,15.25
2019-05-21T03:45:33.918Z,15.36
2019-05-21T03:48:00.850Z,15.30
2019-05-21T03:50:27.509Z,15.36
2019-05-21T03:52:54.139Z,15.27
2019-05-21T03:55:22.059Z,15.29
2019-05-21T03:57:49.336Z,15.20
2019-05-21T04:00:17.215Z,15.32
2019-05-21T04:02:43.974Z,15.31
2019-05-21T04:05:20.194Z,15.35
2019-05-21T04:07:47.965Z,15.43
2019-05-21T04:10:15.158Z,15.40
2019-05-21T04:12:41.979Z,15.27
2019-05-21T04:15:11.249Z,15.22
2019-05-21T04:17:40.874Z,15.27
2019-05-21T04:20:08.532Z,15.34
2019-05-21T04:22:37.426Z,15.38
2019-05-21T04:25:05.444Z,15.36
2019-05-21T04:27:32.029Z,15.28
2019-05-21T04:30:00.022Z,15.31
2019-05-21T04:32:27.957Z,15.48
2019-05-21T04:34:54.549Z,15.53
2019-05-21T04:37:21.584Z,15.56
2019-05-21T04:39:48.630Z,15.55
2019-05-21T04:42:15.530Z,15.66
2019-05-21T04:44:42.389Z,15.74
2019-05-21T04:47:09.486Z,15.89
2019-05-21T04:49:37.297Z,15.93
2019-05-21T04:52:05.970Z,15.96
2019-05-21T04:54:35.021Z,16.13
2019-05-21T04:57:01.603Z,16.14
2019-05-21T04:59:29.426Z,16.21
2019-05-21T05:01:56.511Z,16.24
2019-05-21T05:04:24.769Z,16.41
2019-05-21T05:06:52.619Z,16.37
2019-05-21T05:09:19.243Z,16.43
2019-05-21T05:11:45.878Z,16.59
2019-05-21T05:14:12.643Z,16.69
2019-05-21T05:16:40.416Z,16.83
2019-05-21T05:19:07.452Z,16.79
2019-05-21T05:21:34.048Z,16.80
2019-05-21T05:24:00.830Z,16.65
2019-05-21T05:26:27.415Z,16.66
2019-05-21T05:28:54.501Z,16.98
2019-05-21T05:31:21.682Z,17.21
2019-05-21T05:33:48.539Z,17.22
2019-05-21T05:36:15.404Z,17.40
2019-05-21T05:38:43.970Z,17.44
2019-05-21T05:41:10.572Z,17.70
2019-05-21T05:43:37.450Z,17.66
2019-05-21T05:46:04.788Z,17.75
2019-05-21T05:48:34.755Z,17.74
2019-05-21T05:51:03.591Z,18.05
2019-05-21T05:53:30.446Z,18.26
2019-05-21T05:55:57.008Z,18.27
2019-05-21T05:58:24.828Z,18.08
2019-05-21T06:00:51.622Z,18.34
2019-05-21T06:03:18.661Z,18.65
2019-05-21T06:05:46.281Z,18.44
2019-05-21T06:08:13.322Z,18.65
2019-05-21T06:10:40.488Z,19.01
2019-05-21T06:13:07.950Z,19.13
2019-05-21T06:15:34.771Z,19.22
2019-05-21T06:18:01.540Z,19.00
2019-05-21T06:20:28.171Z,18.61
2019-05-21T06:22:55.240Z,18.54
2019-05-21T06:25:22.788Z,18.09
2019-05-21T06:27:49.979Z,18.08
2019-05-21T06:30:19.585Z,18.53
2019-05-21T06:32:47.574Z,18.80
2019-05-21T06:35:15.041Z,18.30
2019-05-21T06:37:41.815Z,18.48
2019-05-21T06:40:10.341Z,18.19
2019-05-21T06:42:37.064Z,18.14
2019-05-21T06:45:06.467Z,18.39
2019-05-21T06:47:33.551Z,18.83
2019-05-21T06:50:01.484Z,19.28
2019-05-21T06:52:28.564Z,19.25
2019-05-21T06:54:55.256Z,19.47
2019-05-21T06:57:23.375Z,19.65
2019-05-21T06:59:50.994Z,19.96
2019-05-21T07:02:18.072Z,19.97
2019-05-21T07:04:44.891Z,19.88
2019-05-21T07:07:11.661Z,19.81
2019-05-21T07:09:38.447Z,19.96
2019-05-21T07:12:05.800Z,20.02
2019-05-21T07:14:34.121Z,20.21
2019-05-21T07:17:01.828Z,20.66
2019-05-21T07:19:34.890Z,20.42
2019-05-21T07:22:12.059Z,20.66
2019-05-21T07:24:30.881Z,20.95
2019-05-21T07:26:58.674Z,20.40
2019-05-21T07:29:25.631Z,20.40
2019-05-21T07:31:52.231Z,20.55
2019-05-21T07:34:19.496Z,20.59
2019-05-21T07:36:47.104Z,20.94
2019-05-21T07:39:15.089Z,20.96
2019-05-21T07:41:42.943Z,20.56
2019-05-21T07:44:09.706Z,20.12
2019-05-21T07:46:39.738Z,20.34
2019-05-21T07:49:07.186Z,20.80
2019-05-21T07:51:34.299Z,20.64
2019-05-21T07:54:01.632Z,20.56
2019-05-21T07:56:28.313Z,20.82
2019-05-21T07:58:57.849Z,21.09
2019-05-21T08:01:25.130Z,21.54
2019-05-21T08:03:51.691Z,21.61
2019-05-21T08:06:18.382Z,21.36
2019-05-21T08:08:45.262Z,21.36
2019-05-21T08:11:12.157Z,21.02
2019-05-21T08:13:39.454Z,20.40
2019-05-21T08:16:06.133Z,20.57
2019-05-21T08:18:32.937Z,20.54
2019-05-21T08:20:59.801Z,20.64
2019-05-21T08:23:26.602Z,20.74
2019-05-21T08:25:53.426Z,21.05
2019-05-21T08:28:20.988Z,21.40
2019-05-21T08:30:47.799Z,21.43
2019-05-21T08:33:14.550Z,21.61
2019-05-21T08:35:41.244Z,21.33
2019-05-21T08:38:08.028Z,21.21
2019-05-21T08:40:34.825Z,21.50
2019-05-21T08:43:01.747Z,21.23
2019-05-21T08:45:28.661Z,21.48
2019-05-21T08:47:56.652Z,21.37
2019-05-21T08:50:25.512Z,21.44
2019-05-21T08:52:52.083Z,21.65
2019-05-21T08:55:18.942Z,21.53
2019-05-21T08:58:05.045Z,21.49
2019-05-21T09:00:20.051Z,21.52
2019-05-21T09:02:46.712Z,21.18
2019-05-21T09:05:16.375Z,21.28
2019-05-21T09:07:44.663Z,21.35
2019-05-21T09:10:13.499Z,21.20
2019-05-21T09:12:40.326Z,20.97
2019-05-21T09:15:10.100Z,21.24
2019-05-21T09:17:37.999Z,21.42
2019-05-21T09:20:08.454Z,21.38
2019-05-21T09:22:36.391Z,21.24
2019-05-21T09:25:05.292Z,20.89
2019-05-21T09:27:33.552Z,20.73
2019-05-21T09:30:00.668Z,20.77
2019-05-21T09:32:29.143Z,20.54
2019-05-21T09:34:56.984Z,20.64
2019-05-21T09:37:24.893Z,20.46
2019-05-21T09:39:51.803Z,20.18
2019-05-21T09:42:18.873Z,19.86
2019-05-21T09:44:46.301Z,19.85
2019-05-21T09:47:14.402Z,20.03
2019-05-21T09:49:42.401Z,20.26
2019-05-21T09:52:09.440Z,20.31
2019-05-21T09:54:36.055Z,20.44
2019-05-21T09:57:05.510Z,20.42
2019-05-21T09:59:35.515Z,20.68
2019-05-21T10:02:05.100Z,20.89
2019-05-21T10:04:31.894Z,21.55
2019-05-21T10:06:58.587Z,21.53
2019-05-21T10:09:26.654Z,21.12
2019-05-21T10:11:54.433Z,21.43
2019-05-21T10:14:24.833Z,21.41
2019-05-21T10:16:52.091Z,21.89
2019-05-21T10:19:18.712Z,21.80
2019-05-21T10:21:46.431Z,21.99
2019-05-21T10:24:14.268Z,22.08
2019-05-21T10:26:41.018Z,22.38
2019-05-21T10:29:08.266Z,22.41
2019-05-21T10:32:31.929Z,22.51
2019-05-21T10:34:59.070Z,22.30
2019-05-21T10:37:25.983Z,22.28
2019-05-21T10:39:52.760Z,22.22
2019-05-21T10:42:19.495Z,22.65
2019-05-21T10:44:46.848Z,22.73
2019-05-21T10:47:16.368Z,22.91
2019-05-21T10:49:42.525Z,22.93
2019-05-21T10:52:10.004Z,22.73
2019-05-21T10:54:37.775Z,22.90
2019-05-21T10:57:04.681Z,23.08
2019-05-21T10:59:31.780Z,23.28
2019-05-21T11:02:01.402Z,23.14
2019-05-21T11:04:30.087Z,22.99
2019-05-21T11:06:57.049Z,22.85
2019-05-21T11:09:24.422Z,22.64
2019-05-21T11:11:51.089Z,22.43
2019-05-21T11:14:18.331Z,22.32
2019-05-21T11:16:45.452Z,22.52
2019-05-21T11:19:12.478Z,22.49
2019-05-21T11:21:39.538Z,22.41
2019-05-21T11:24:07.834Z,22.66
2019-05-21T11:26:34.924Z,22.76
2019-05-21T11:29:03.519Z,22.88
2019-05-21T11:31:31.384Z,22.80
2019-05-21T11:33:58.105Z,22.85
2019-05-21T11:36:24.776Z,22.83
2019-05-21T11:38:52.630Z,22.90
2019-05-21T11:41:19.541Z,22.91
2019-05-21T11:43:46.686Z,22.65
2019-05-21T11:46:14.917Z,22.34
2019-05-21T11:48:43.875Z,22.17
2019-05-21T11:51:12.806Z,21.97
2019-05-21T11:53:39.427Z,21.89
2019-05-21T11:56:06.128Z,21.86
2019-05-21T11:58:39.572Z,22.03
2019-05-21T12:01:02.937Z,22.10
2019-05-21T12:03:29.979Z,22.23
2019-05-21T12:05:56.641Z,22.19
2019-05-21T12:08:24.336Z,22.10
2019-05-21T12:10:52.114Z,21.91
2019-05-21T12:13:21.047Z,22.04
2019-05-21T12:15:48.367Z,21.86
2019-05-21T12:18:17.221Z,21.64
2019-05-21T12:20:44.588Z,21.19
2019-05-21T12:23:12.299Z,21.15
2019-05-21T12:25:38.950Z,20.88
2019-05-21T12:28:06.565Z,20.77
2019-05-21T12:31:30.649Z,20.78
2019-05-21T12:34:00.455Z,20.93
2019-05-21T12:36:27.994Z,20.78
2019-05-21T12:38:55.100Z,20.92
2019-05-21T12:41:23.312Z,20.47
2019-05-21T12:43:50.120Z,20.39
2019-05-21T12:46:18.209Z,20.49
2019-05-21T12:48:45.918Z,20.48
2019-05-21T12:51:13.672Z,21.14
2019-05-21T12:53:41.527Z,21.38
2019-05-21T12:56:08.820Z,21.58
2019-05-21T12:58:35.786Z,21.92
2019-05-21T13:01:03.943Z,22.10
2019-05-21T13:03:30.623Z,21.91
2019-05-21T13:05:57.627Z,22.36
2019-05-21T13:08:24.316Z,22.64
2019-05-21T13:10:52.246Z,22.34
2019-05-21T13:13:18.968Z,22.45
2019-05-21T13:15:45.720Z,22.39
2019-05-21T13:18:12.417Z,22.60
2019-05-21T13:20:39.193Z,22.58
2019-05-21T13:23:06.196Z,22.65
2019-05-21T13:25:36.039Z,22.40
2019-05-21T13:28:03.577Z,22.31
2019-05-21T13:30:31.319Z,21.73
2019-05-21T13:33:00.213Z,21.73
2019-05-21T13:35:28.296Z,22.23
2019-05-21T13:37:56.274Z,22.89
2019-05-21T13:40:23.917Z,22.94
2019-05-21T13:42:51.859Z,23.18
2019-05-21T13:45:18.724Z,23.36
2019-05-21T13:47:45.841Z,23.18
2019-05-21T13:50:12.970Z,22.78
2019-05-21T13:52:40.276Z,22.63
2019-05-21T13:55:08.974Z,22.35
2019-05-21T13:57:36.257Z,22.00
2019-05-21T14:00:07.370Z,21.99
2019-05-21T14:02:35.897Z,22.34
2019-05-21T14:05:05.487Z,22.65
2019-05-21T14:07:32.930Z,22.15
2019-05-21T14:10:14.203Z,21.55
2019-05-21T14:12:30.898Z,21.72
2019-05-21T14:14:58.666Z,22.10
2019-05-21T14:17:25.969Z,22.05
2019-05-21T14:19:53.113Z,22.28
2019-05-21T14:22:21.243Z,22.11
2019-05-21T14:24:48.330Z,22.18
2019-05-21T14:27:16.057Z,21.99
2019-05-21T14:29:42.928Z,22.20
2019-05-21T14:32:09.810Z,21.84
2019-05-21T14:34:37.591Z,21.87
2019-05-21T14:37:04.656Z,22.27
2019-05-21T14:39:32.515Z,22.21
2019-05-21T14:41:59.142Z,22.14
2019-05-21T14:44:25.916Z,21.98
2019-05-21T14:46:52.899Z,22.12
2019-05-21T14:49:21.074Z,22.06
2019-05-21T14:51:48.865Z,22.27
2019-05-21T14:54:26.268Z,22.54
2019-05-21T14:56:47.573Z,22.20
2019-05-21T14:59:15.303Z,22.33
2019-05-21T15:01:42.369Z,22.68
2019-05-21T15:04:09.224Z,22.36
2019-05-21T15:06:36.591Z,22.48
2019-05-21T15:09:05.579Z,22.39
2019-05-21T15:11:32.766Z,22.58
2019-05-21T15:13:59.576Z,22.70
2019-05-21T15:16:26.360Z,22.76
2019-05-21T15:18:54.462Z,22.84
2019-05-21T15:21:23.488Z,22.66
2019-05-21T15:23:50.933Z,22.51
2019-05-21T15:26:18.602Z,22.36
2019-05-21T15:28:45.405Z,22.14
2019-05-21T15:31:12.999Z,22.03
2019-05-21T15:33:40.032Z,22.06
2019-05-21T15:36:08.718Z,21.80
2019-05-21T15:38:49.408Z,21.56
2019-05-21T15:41:10.376Z,21.72
2019-05-21T15:43:33.234Z,21.58
2019-05-21T15:46:00.435Z,21.73
2019-05-21T15:48:27.264Z,22.12
2019-05-21T15:50:54.258Z,22.36
2019-05-21T15:53:21.191Z,22.16
2019-05-21T15:55:49.593Z,22.54
2019-05-21T15:58:19.602Z,22.44
2019-05-21T16:00:46.712Z,22.49
2019-05-21T16:03:13.362Z,22.83
2019-05-21T16:05:40.172Z,22.50
2019-05-21T16:08:06.826Z,22.44
2019-05-21T16:10:34.747Z,22.14
2019-05-21T16:13:02.941Z,22.19
2019-05-21T16:15:30.129Z,21.84
2019-05-21T16:17:58.054Z,21.76
2019-05-21T16:20:25.034Z,21.14
2019-05-21T16:22:52.072Z,21.45
2019-05-21T16:25:19.122Z,21.48
2019-05-21T16:27:51.066Z,21.21
2019-05-21T16:30:29.103Z,21.20
2019-05-21T16:32:57.104Z,21.35
2019-05-21T16:35:24.228Z,21.63
2019-05-21T16:37:51.038Z,21.32
2019-05-21T16:40:18.443Z,21.06
2019-05-21T16:42:45.608Z,21.06
2019-05-21T16:45:13.503Z,20.80
2019-05-21T16:47:46.287Z,20.83
2019-05-21T16:50:12.662Z,20.89
2019-05-21T16:52:40.514Z,20.60
2019-05-21T16:55:07.880Z,20.61
2019-05-21T16:57:36.644Z,20.43
2019-05-21T17:00:07.057Z,20.07
2019-05-21T17:02:34.048Z,20.09
2019-05-21T17:05:05.360Z,20.03
2019-05-21T17:07:32.175Z,20.14
2019-05-21T17:09:58.841Z,20.11
2019-05-21T17:12:25.726Z,20.03
2019-05-21T17:14:53.099Z,19.70
2019-05-21T17:17:20.076Z,19.60
2019-05-21T17:19:46.992Z,19.62
2019-05-21T17:22:13.788Z,19.56
2019-05-21T17:24:41.815Z,19.58
2019-05-21T17:27:08.848Z,19.26
2019-05-21T17:29:35.727Z,19.47
2019-05-21T17:32:06.178Z,19.37
2019-05-21T17:34:31.412Z,19.48
2019-05-21T17:36:58.711Z,19.35
2019-05-21T17:39:25.638Z,19.19
2019-05-21T17:41:53.633Z,19.36
2019-05-21T17:44:20.739Z,19.18
2019-05-21T17:46:48.765Z,19.26
2019-05-21T17:49:19.979Z,19.23
2019-05-21T17:51:49.479Z,19.18
2019-05-21T17:54:19.400Z,19.05
2019-05-21T17:56:46.528Z,18.99
2019-05-21T17:59:14.078Z,18.88
2019-05-21T18:01:43.156Z,18.95
2019-05-21T18:04:11.893Z,18.65
2019-05-21T18:06:41.162Z,18.69
2019-05-21T18:09:11.597Z,18.52
2019-05-21T18:11:39.130Z,18.29
2019-05-21T18:14:05.980Z,18.36
2019-05-21T18:16:33.792Z,18.27
2019-05-21T18:19:02.213Z,18.31
2019-05-21T18:21:29.931Z,18.07
2019-05-21T18:23:57.328Z,18.20
2019-05-21T18:26:25.157Z,17.97
2019-05-21T18:28:53.231Z,17.88
2019-05-21T18:31:20.176Z,17.76
2019-05-21T18:33:47.776Z,17.52
2019-05-21T18:36:15.810Z,17.77
2019-05-21T18:38:42.603Z,17.69
2019-05-21T18:41:09.838Z,17.51
2019-05-21T18:43:36.634Z,17.53
2019-05-21T18:46:03.837Z,17.40
2019-05-21T18:48:32.623Z,17.51
2019-05-21T18:51:00.774Z,17.37
2019-05-21T18:53:27.498Z,17.40
2019-05-21T18:55:55.817Z,17.21
2019-05-21T18:58:25.102Z,17.12
2019-05-21T19:00:54.406Z,17.30
2019-05-21T19:03:28.517Z,17.25
2019-05-21T19:05:50.214Z,17.23
2019-05-21T19:08:18.080Z,17.24
2019-05-21T19:10:46.075Z,17.15
2019-05-21T19:13:14.769Z,17.00
2019-05-21T19:15:41.793Z,16.87
2019-05-21T19:18:09.115Z,16.56
2019-05-21T19:20:37.232Z,16.60
2019-05-21T19:23:04.311Z,16.43
2019-05-21T19:25:32.752Z,16.72
2019-05-21T19:27:59.959Z,16.51
2019-05-21T19:30:29.721Z,16.48
2019-05-21T19:32:57.441Z,16.47
2019-05-21T19:35:25.138Z,16.43
2019-05-21T19:37:52.210Z,16.21
2019-05-21T19:40:19.519Z,16.12
2019-05-21T19:42:54.934Z,16.17
2019-05-21T19:45:17.829Z,16.11
2019-05-21T19:47:44.949Z,16.20
2019-05-21T19:50:12.715Z,16.11
2019-05-21T19:52:39.390Z,16.17
2019-05-21T19:55:09.799Z,16.21
2019-05-21T19:57:40.495Z,15.85
2019-05-21T20:00:08.496Z,16.00
2019-05-21T20:02:36.368Z,15.81
2019-05-21T20:05:10.854Z,15.70
2019-05-21T20:07:39.396Z,15.76
2019-05-21T20:10:07.523Z,15.90
2019-05-21T20:12:35.863Z,15.87
2019-05-21T20:15:07.484Z,15.88
2019-05-21T20:17:35.639Z,15.71
2019-05-21T20:20:06.959Z,15.73
2019-05-21T20:22:36.420Z,15.59
2019-05-21T20:25:06.493Z,15.78
2019-05-21T20:27:35.335Z,15.65
2019-05-21T20:30:12.621Z,15.62
2019-05-21T20:32:38.578Z,15.53
2019-05-21T20:35:08.403Z,15.35
2019-05-21T20:37:38.472Z,15.45
2019-05-21T20:40:12.182Z,15.39
2019-05-21T20:42:42.044Z,15.31
2019-05-21T20:45:13.949Z,15.23
2019-05-21T20:47:41.772Z,15.28
2019-05-21T20:50:13.339Z,15.19
2019-05-21T20:52:43.776Z,15.26
2019-05-21T20:55:11.591Z,15.24
2019-05-21T20:57:39.119Z,14.99
2019-05-21T21:00:11.555Z,14.86
2019-05-21T21:02:41.317Z,14.94
2019-05-21T21:05:21.701Z,14.89
2019-05-21T21:08:05.317Z,14.95
2019-05-21T21:10:48.492Z,14.84
2019-05-21T21:13:29.453Z,14.94
2019-05-21T21:16:14.242Z,14.86
2019-05-21T21:18:45.636Z,14.75
2019-05-21T21:21:14.743Z,14.75
2019-05-21T21:24:03.189Z,14.72
2019-05-21T21:26:35.052Z,14.83
2019-05-21T21:29:10.924Z,14.77
2019-05-21T21:31:40.303Z,14.64
2019-05-21T21:34:08.980Z,14.46
2019-05-21T21:36:36.875Z,14.46
2019-05-21T21:39:05.820Z,14.60
2019-05-21T21:41:34.550Z,14.61
2019-05-21T21:44:02.925Z,14.47
2019-05-21T21:46:30.103Z,14.57
2019-05-21T21:48:57.344Z,14.46
2019-05-21T21:51:24.268Z,14.43
2019-05-21T21:53:51.948Z,14.41
2019-05-21T21:56:20.018Z,14.37
2019-05-21T21:58:47.025Z,14.41
2019-05-21T22:01:22.408Z,14.34
2019-05-21T22:03:51.869Z,14.28
2019-05-21T22:06:20.473Z,14.26
2019-05-21T22:08:53.169Z,14.13
2019-05-21T22:11:20.999Z,14.36
2019-05-21T22:13:48.228Z,14.25
2019-05-21T22:16:15.575Z,14.31
2019-05-21T22:18:42.686Z,14.29
2019-05-21T22:21:09.446Z,14.23
2019-05-21T22:23:36.533Z,14.02
2019-05-21T22:26:03.486Z,14.07
2019-05-21T22:28:31.373Z,14.30
2019-05-21T22:30:58.355Z,14.25
2019-05-21T22:33:25.025Z,14.11
2019-05-21T22:35:51.779Z,13.97
2019-05-21T22:38:18.673Z,13.93
2019-05-21T22:40:45.713Z,13.91
2019-05-21T22:43:14.430Z,13.89
2019-05-21T22:45:41.001Z,13.86
2019-05-21T22:48:07.928Z,13.82
2019-05-21T22:50:35.313Z,13.88
2019-05-21T22:53:02.731Z,13.85
2019-05-21T22:55:29.389Z,13.73
2019-05-21T22:57:58.052Z,13.81
2019-05-21T23:00:25.082Z,13.92
2019-05-21T23:02:52.748Z,13.84
2019-05-21T23:05:22.874Z,13.93
2019-05-21T23:07:48.267Z,13.85
2019-05-21T23:10:16.616Z,13.98
2019-05-21T23:12:44.632Z,13.74
2019-05-21T23:15:24.463Z,13.84
2019-05-21T23:17:43.579Z,13.76
2019-05-21T23:20:13.822Z,13.74
2019-05-21T23:22:44.469Z,13.94
2019-05-21T23:25:12.059Z,14.03
2019-05-21T23:27:39.970Z,13.71
2019-05-21T23:30:11.264Z,13.83
2019-05-21T23:32:38.871Z,13.85
2019-05-21T23:35:08.683Z,13.74
2019-05-21T23:37:39.442Z,13.81
2019-05-21T23:40:10.071Z,13.80
2019-05-21T23:42:38.977Z,13.80
2019-05-21T23:45:08.858Z,13.86
2019-05-21T23:47:36.176Z,13.81
2019-05-21T23:50:07.691Z,13.75
2019-05-21T23:52:37.199Z,13.68
2019-05-21T23:55:06.876Z,13.73
2019-05-21T23:57:36.016Z,13.71
